Alembic, MI

9:34 PM EST on December 03, 2016 (GMT -0500)
Chippewa Township | | Change Station

Elev 755 ft 43.63 °N, 84.65 °W | Updated 4 minutes ago

Overcast
Overcast
35.6 °F
Feels Like 36 °F
N
0.0
Wind Variable Wind from WSW
Gusts 0.0 mph

Today
High -- | Low -- °F
--% Chance of Precip.
Yesterday
High -- | Low -- °F
Precip. -- in
Pressure 30.26 in
Visibility 10.0 miles
Clouds Overcast 4000 ft
Windchill 36 °F
Dew Point 14 °F
Humidity 41%
Rainfall Not available.
Snow Depth Not available.
7:54 AM 5:02 PM
Waxing Crescent, 19% visible
METAR KMOP 040216Z AUTO 25004KT 10SM OVC040 02/M01 A3026 RMK AO2 T00171013
Pressure 30.26 in
Visibility 10.0 miles
Clouds Overcast 4000 ft
Windchill 36 °F
Dew Point 14 °F
Humidity 41%
Rainfall Not available.
Snow Depth Not available.
7:54 AM 5:02 PM
Waxing Crescent, 19% visible
METAR KMOP 040216Z AUTO 25004KT 10SM OVC040 02/M01 A3026 RMK AO2 T00171013

10-Day Weather Forecast

Almanac

Astronomy

Dec. 03, 2016 Rise Set
Actual Time
Civil Twilight
Nautical Twilight
Astronomical Twilight
Moon
Length of Visible Light
Length of Day
Tomorrow will be .
, % of the Moon is Illuminated

Today's Extremes

State Highs State Lows

Community

WunderPhotos

Upload Photos

1,955,564 photos uploaded!

WunderBlog® & News

Nearby

Air Quality

  Air Quality AQ Index Pollutant
Not available.

Snow Depth

Station Depth Elevation

Earthquake Activity

City Distance Mag. Time & Date
Minimum magnitude displayed is 2.5.

Coastal Water Temperatures

Place Temperature

Stations

Nearby Weather Stations

Station Location Temp. Windchill Dew Point Humidity Wind Precip. Elev Updated Type
                   

Watches & Warnings

There are currently no watches in effect.